NKS1123 KJAX-KFLL
Flight info
| Callsign | NKS1123 |
|---|---|
| Flight time | 1h 21m |
| Altitude | 35000 |
| Route | EXBOX2 EXBOX PRMUS CUUDA3 |
| Aircraft | A21N/M-SDE2E3FGHIRWXY/LB1 |
Departure
| Time | 2026-05-03 21:32 |
|---|---|
| Airport | Jacksonville International Airport (KJAX) |
Arrival
| Time | 2026-05-03 22:53 |
|---|---|
| Airport | Fort Lauderdale Hollywood International Airport (KFLL) |
| Time | Latitude | Longitude | Altitude | Speed | Heading |
|---|---|---|---|---|---|
| 2026-05-03 21:14 | 30.48949 | -81.68635 | 40 ft | 0 kts | 26° |
| 2026-05-03 21:22 | 30.48948 | -81.68636 | 39 ft | 1 kts | 26° |
| 2026-05-03 21:22 | 30.48935 | -81.68643 | 40 ft | 3 kts | 26° |
| 2026-05-03 21:22 | 30.48917 | -81.68653 | 40 ft | 3 kts | 26° |
| 2026-05-03 21:23 | 30.48901 | -81.68662 | 40 ft | 1 kts | 26° |
| 2026-05-03 21:23 | 30.48891 | -81.68668 | 40 ft | 3 kts | 1° |
| 2026-05-03 21:23 | 30.48886 | -81.68669 | 39 ft | 0 kts | 316° |
| 2026-05-03 21:25 | 30.48892 | -81.68682 | 39 ft | 4 kts | 296° |
| 2026-05-03 21:25 | 30.48917 | -81.68741 | 36 ft | 9 kts | 311° |
| 2026-05-03 21:26 | 30.48962 | -81.68779 | 35 ft | 0 kts | 326° |
| 2026-05-03 21:26 | 30.48976 | -81.68790 | 38 ft | 7 kts | 326° |
| 2026-05-03 21:26 | 30.49037 | -81.68853 | 36 ft | 14 kts | 301° |
| 2026-05-03 21:26 | 30.49073 | -81.68935 | 39 ft | 10 kts | 296° |
| 2026-05-03 21:27 | 30.49105 | -81.69017 | 39 ft | 12 kts | 286° |
| 2026-05-03 21:27 | 30.49070 | -81.69103 | 37 ft | 13 kts | 230° |
| 2026-05-03 21:27 | 30.49008 | -81.69190 | 37 ft | 15 kts | 230° |
| 2026-05-03 21:27 | 30.48940 | -81.69291 | 35 ft | 15 kts | 233° |
| 2026-05-03 21:28 | 30.48914 | -81.69377 | 36 ft | 12 kts | 288° |
| 2026-05-03 21:28 | 30.48969 | -81.69455 | 36 ft | 13 kts | 311° |
| 2026-05-03 21:28 | 30.49029 | -81.69536 | 37 ft | 13 kts | 311° |
| 2026-05-03 21:28 | 30.49095 | -81.69624 | 37 ft | 18 kts | 310° |
| 2026-05-03 21:29 | 30.49191 | -81.69756 | 37 ft | 26 kts | 310° |
| 2026-05-03 21:29 | 30.49279 | -81.69875 | 37 ft | 16 kts | 311° |
| 2026-05-03 21:29 | 30.49315 | -81.69959 | 36 ft | 12 kts | 255° |
| 2026-05-03 21:29 | 30.49268 | -81.70018 | 36 ft | 0 kts | 218° |
| 2026-05-03 21:30 | 30.49261 | -81.70024 | 36 ft | 5 kts | 218° |
| 2026-05-03 21:30 | 30.49226 | -81.70056 | 35 ft | 7 kts | 218° |
| 2026-05-03 21:30 | 30.49205 | -81.70068 | 37 ft | 2 kts | 181° |
| 2026-05-03 21:30 | 30.49186 | -81.70047 | 38 ft | 5 kts | 128° |
| 2026-05-03 21:31 | 30.49161 | -81.70012 | 36 ft | 7 kts | 129° |
| 2026-05-03 21:31 | 30.49004 | -81.69793 | 37 ft | 74 kts | 130° |
| 2026-05-03 21:31 | 30.48503 | -81.69118 | 33 ft | 143 kts | 130° |
| 2026-05-03 21:31 | 30.47789 | -81.68153 | 453 ft | 159 kts | 128° |
| 2026-05-03 21:32 | 30.47068 | -81.67198 | 1241 ft | 158 kts | 128° |
| 2026-05-03 21:32 | 30.46302 | -81.66186 | 1680 ft | 177 kts | 128° |
| 2026-05-03 21:32 | 30.45435 | -81.65059 | 1896 ft | 198 kts | 131° |
| 2026-05-03 21:32 | 30.44421 | -81.63876 | 2088 ft | 220 kts | 133° |
| 2026-05-03 21:33 | 30.43251 | -81.62561 | 2375 ft | 246 kts | 134° |
| 2026-05-03 21:33 | 30.41969 | -81.61137 | 2948 ft | 261 kts | 135° |
| 2026-05-03 21:33 | 30.40638 | -81.59664 | 3748 ft | 268 kts | 135° |
| 2026-05-03 21:33 | 30.39285 | -81.58163 | 4596 ft | 271 kts | 135° |
| 2026-05-03 21:34 | 30.37909 | -81.56639 | 5455 ft | 274 kts | 135° |
| 2026-05-03 21:34 | 30.36528 | -81.55106 | 6305 ft | 277 kts | 135° |
| 2026-05-03 21:34 | 30.35127 | -81.53552 | 7128 ft | 281 kts | 136° |
| 2026-05-03 21:34 | 30.34174 | -81.52494 | 7650 ft | 284 kts | 136° |
| 2026-05-03 21:35 | 30.32755 | -81.50916 | 8408 ft | 289 kts | 136° |
| 2026-05-03 21:35 | 30.31296 | -81.49295 | 9153 ft | 293 kts | 136° |
| 2026-05-03 21:35 | 30.29811 | -81.47644 | 9879 ft | 298 kts | 137° |
| 2026-05-03 21:35 | 30.28286 | -81.45949 | 10391 ft | 314 kts | 138° |
| 2026-05-03 21:36 | 30.26632 | -81.44111 | 10603 ft | 338 kts | 139° |
| 2026-05-03 21:36 | 30.24891 | -81.42177 | 11023 ft | 352 kts | 139° |
| 2026-05-03 21:36 | 30.23109 | -81.40197 | 11666 ft | 359 kts | 140° |
| 2026-05-03 21:36 | 30.21302 | -81.38187 | 12328 ft | 364 kts | 141° |
| 2026-05-03 21:37 | 30.19484 | -81.36164 | 12959 ft | 370 kts | 141° |
| 2026-05-03 21:37 | 30.17616 | -81.34091 | 13609 ft | 374 kts | 141° |
| 2026-05-03 21:37 | 30.15705 | -81.31970 | 14276 ft | 378 kts | 141° |
| 2026-05-03 21:37 | 30.13796 | -81.29852 | 14930 ft | 382 kts | 141° |
| 2026-05-03 21:38 | 30.11868 | -81.27720 | 15586 ft | 385 kts | 142° |
| 2026-05-03 21:38 | 30.09919 | -81.25574 | 15801 ft | 402 kts | 142° |
| 2026-05-03 21:38 | 30.07855 | -81.23308 | 16125 ft | 415 kts | 141° |
| 2026-05-03 21:38 | 30.05659 | -81.21128 | 16656 ft | 414 kts | 150° |
| 2026-05-03 21:39 | 30.03226 | -81.19530 | 17796 ft | 391 kts | 162° |
| 2026-05-03 21:39 | 30.00741 | -81.18509 | 18995 ft | 370 kts | 173° |
| 2026-05-03 21:39 | 29.98241 | -81.18029 | 19767 ft | 360 kts | 182° |
| 2026-05-03 21:39 | 29.95745 | -81.17779 | 20403 ft | 361 kts | 183° |
| 2026-05-03 21:40 | 29.93228 | -81.17533 | 20973 ft | 363 kts | 183° |
| 2026-05-03 21:40 | 29.90701 | -81.17246 | 21516 ft | 369 kts | 179° |
| 2026-05-03 21:40 | 29.88168 | -81.16526 | 22040 ft | 382 kts | 168° |
| 2026-05-03 21:40 | 29.85724 | -81.15239 | 22551 ft | 395 kts | 157° |
| 2026-05-03 21:41 | 29.83390 | -81.13477 | 23045 ft | 402 kts | 154° |
| 2026-05-03 21:41 | 29.80995 | -81.11853 | 23521 ft | 397 kts | 162° |
| 2026-05-03 21:41 | 29.78464 | -81.10573 | 23943 ft | 399 kts | 165° |
| 2026-05-03 21:41 | 29.75913 | -81.09326 | 24462 ft | 400 kts | 165° |
| 2026-05-03 21:42 | 29.73344 | -81.08077 | 24939 ft | 403 kts | 166° |
| 2026-05-03 21:42 | 29.70743 | -81.06811 | 25426 ft | 405 kts | 166° |
| 2026-05-03 21:42 | 29.68097 | -81.05524 | 25824 ft | 410 kts | 166° |
| 2026-05-03 21:42 | 29.65500 | -81.04259 | 26278 ft | 411 kts | 166° |
| 2026-05-03 21:43 | 29.62832 | -81.02952 | 26822 ft | 411 kts | 166° |
| 2026-05-03 21:43 | 29.60252 | -81.01683 | 27362 ft | 409 kts | 166° |
| 2026-05-03 21:43 | 29.57633 | -81.00392 | 27939 ft | 407 kts | 166° |
| 2026-05-03 21:43 | 29.55041 | -80.99115 | 28486 ft | 405 kts | 167° |
| 2026-05-03 21:44 | 29.52425 | -80.97833 | 29015 ft | 403 kts | 167° |
| 2026-05-03 21:44 | 29.49851 | -80.96576 | 29508 ft | 401 kts | 168° |
| 2026-05-03 21:44 | 29.47292 | -80.95327 | 30014 ft | 399 kts | 168° |
| 2026-05-03 21:44 | 29.44743 | -80.94083 | 30486 ft | 397 kts | 168° |
| 2026-05-03 21:45 | 29.42202 | -80.92848 | 30923 ft | 396 kts | 168° |
| 2026-05-03 21:45 | 29.39663 | -80.91615 | 31332 ft | 396 kts | 169° |
| 2026-05-03 21:45 | 29.37121 | -80.90381 | 31640 ft | 399 kts | 169° |
| 2026-05-03 21:45 | 29.34546 | -80.89138 | 31769 ft | 406 kts | 169° |
| 2026-05-03 21:46 | 29.31916 | -80.87870 | 31896 ft | 413 kts | 169° |
| 2026-05-03 21:46 | 29.29278 | -80.86598 | 32024 ft | 419 kts | 169° |
| 2026-05-03 21:46 | 29.26546 | -80.85278 | 32156 ft | 426 kts | 169° |
| 2026-05-03 21:46 | 29.24261 | -80.84171 | 32259 ft | 431 kts | 169° |
| 2026-05-03 21:47 | 29.21440 | -80.82803 | 32389 ft | 438 kts | 168° |
| 2026-05-03 21:47 | 29.18679 | -80.81459 | 32520 ft | 444 kts | 168° |
| 2026-05-03 21:47 | 29.15824 | -80.80068 | 32762 ft | 446 kts | 168° |
| 2026-05-03 21:47 | 29.12970 | -80.78676 | 33091 ft | 446 kts | 169° |
| 2026-05-03 21:48 | 29.10119 | -80.77287 | 33421 ft | 447 kts | 169° |
| 2026-05-03 21:48 | 29.07254 | -80.75896 | 33764 ft | 446 kts | 169° |
| 2026-05-03 21:48 | 29.04625 | -80.74621 | 34011 ft | 447 kts | 169° |
| 2026-05-03 21:48 | 29.01892 | -80.73299 | 34092 ft | 446 kts | 169° |
| 2026-05-03 21:49 | 28.96349 | -80.70625 | 34097 ft | 445 kts | 170° |
| 2026-05-03 21:49 | 28.90624 | -80.68003 | 34090 ft | 442 kts | 171° |
| 2026-05-03 21:50 | 28.85447 | -80.65728 | 34080 ft | 441 kts | 172° |
| 2026-05-03 21:50 | 28.79816 | -80.63250 | 34080 ft | 440 kts | 171° |
| 2026-05-03 21:51 | 28.74367 | -80.60819 | 34071 ft | 441 kts | 171° |
| 2026-05-03 21:51 | 28.68663 | -80.58270 | 34074 ft | 441 kts | 171° |
| 2026-05-03 21:52 | 28.63368 | -80.55910 | 34072 ft | 441 kts | 171° |
| 2026-05-03 21:52 | 28.57994 | -80.53521 | 34068 ft | 441 kts | 171° |
| 2026-05-03 21:53 | 28.52360 | -80.51022 | 34060 ft | 441 kts | 171° |
| 2026-05-03 21:53 | 28.46686 | -80.48501 | 34055 ft | 441 kts | 171° |
| 2026-05-03 21:54 | 28.41025 | -80.45981 | 34054 ft | 441 kts | 171° |
| 2026-05-03 21:54 | 28.35316 | -80.43455 | 34047 ft | 440 kts | 171° |
| 2026-05-03 21:55 | 28.31475 | -80.41756 | 34049 ft | 440 kts | 171° |
| 2026-05-03 21:55 | 28.28090 | -80.40265 | 34058 ft | 440 kts | 171° |
| 2026-05-03 21:56 | 28.22480 | -80.37789 | 34053 ft | 440 kts | 171° |
| 2026-05-03 21:56 | 28.16787 | -80.35273 | 34062 ft | 440 kts | 171° |
| 2026-05-03 21:57 | 28.11245 | -80.32823 | 34055 ft | 440 kts | 171° |
| 2026-05-03 21:57 | 28.05523 | -80.30394 | 34054 ft | 437 kts | 173° |
| 2026-05-03 21:58 | 28.00777 | -80.28561 | 34054 ft | 436 kts | 174° |
| 2026-05-03 21:58 | 27.94878 | -80.26335 | 34062 ft | 436 kts | 174° |
| 2026-05-03 21:59 | 27.89723 | -80.24359 | 34062 ft | 437 kts | 173° |
| 2026-05-03 21:59 | 27.84836 | -80.22434 | 34062 ft | 437 kts | 173° |
| 2026-05-03 22:00 | 27.79969 | -80.20536 | 33935 ft | 435 kts | 173° |
| 2026-05-03 22:00 | 27.77144 | -80.19429 | 33430 ft | 426 kts | 173° |
| 2026-05-03 22:00 | 27.74624 | -80.18444 | 32140 ft | 429 kts | 173° |
| 2026-05-03 22:01 | 27.71813 | -80.17355 | 31545 ft | 423 kts | 172° |
| 2026-05-03 22:01 | 27.69077 | -80.16283 | 31369 ft | 412 kts | 172° |
| 2026-05-03 22:01 | 27.66378 | -80.15227 | 30913 ft | 409 kts | 172° |
| 2026-05-03 22:01 | 27.63704 | -80.14184 | 30471 ft | 405 kts | 172° |
| 2026-05-03 22:02 | 27.61042 | -80.13147 | 30027 ft | 402 kts | 171° |
| 2026-05-03 22:02 | 27.58412 | -80.12095 | 29589 ft | 400 kts | 171° |
| 2026-05-03 22:02 | 27.55812 | -80.11026 | 29163 ft | 398 kts | 170° |
| 2026-05-03 22:02 | 27.53229 | -80.09950 | 28741 ft | 395 kts | 170° |
| 2026-05-03 22:03 | 27.50659 | -80.08873 | 28333 ft | 393 kts | 169° |
| 2026-05-03 22:03 | 27.48103 | -80.07807 | 27929 ft | 390 kts | 169° |
| 2026-05-03 22:03 | 27.45561 | -80.06752 | 27530 ft | 387 kts | 169° |
| 2026-05-03 22:03 | 27.43028 | -80.05708 | 27129 ft | 393 kts | 169° |
| 2026-05-03 22:04 | 27.40362 | -80.04636 | 26708 ft | 419 kts | 169° |
| 2026-05-03 22:04 | 27.37528 | -80.03533 | 26261 ft | 442 kts | 170° |
| 2026-05-03 22:04 | 27.34548 | -80.02506 | 25791 ft | 453 kts | 172° |
| 2026-05-03 22:04 | 27.31496 | -80.01561 | 25306 ft | 457 kts | 173° |
| 2026-05-03 22:05 | 27.28410 | -80.00662 | 24826 ft | 459 kts | 173° |
| 2026-05-03 22:05 | 27.25355 | -79.99778 | 25334 ft | 450 kts | 172° |
| 2026-05-03 22:05 | 27.22362 | -79.98815 | 26149 ft | 446 kts | 168° |
| 2026-05-03 22:05 | 27.19487 | -79.97325 | 26139 ft | 469 kts | 154° |
| 2026-05-03 22:06 | 27.16955 | -79.94916 | 25883 ft | 487 kts | 137° |
| 2026-05-03 22:06 | 27.15037 | -79.91743 | 25628 ft | 500 kts | 121° |
| 2026-05-03 22:06 | 27.13779 | -79.88061 | 25287 ft | 505 kts | 112° |
| 2026-05-03 22:06 | 27.12692 | -79.84334 | 24790 ft | 502 kts | 112° |
| 2026-05-03 22:07 | 27.11602 | -79.80570 | 24279 ft | 498 kts | 112° |
| 2026-05-03 22:07 | 27.10548 | -79.76940 | 23782 ft | 494 kts | 112° |
| 2026-05-03 22:07 | 27.09472 | -79.73243 | 23263 ft | 490 kts | 112° |
| 2026-05-03 22:07 | 27.08429 | -79.69667 | 22784 ft | 486 kts | 112° |
| 2026-05-03 22:08 | 27.07378 | -79.66077 | 22287 ft | 482 kts | 112° |
| 2026-05-03 22:08 | 27.06320 | -79.62469 | 21779 ft | 478 kts | 112° |
| 2026-05-03 22:08 | 27.05284 | -79.59012 | 21292 ft | 472 kts | 115° |
| 2026-05-03 22:08 | 27.03799 | -79.55806 | 20781 ft | 458 kts | 130° |
| 2026-05-03 22:09 | 27.01721 | -79.53170 | 20283 ft | 443 kts | 145° |
| 2026-05-03 22:09 | 26.99235 | -79.51247 | 19784 ft | 428 kts | 159° |
| 2026-05-03 22:09 | 26.96516 | -79.50068 | 19283 ft | 413 kts | 172° |
| 2026-05-03 22:10 | 26.91836 | -79.49180 | 18499 ft | 403 kts | 177° |
| 2026-05-03 22:10 | 26.89099 | -79.48703 | 18499 ft | 404 kts | 177° |
| 2026-05-03 22:10 | 26.86291 | -79.48210 | 18489 ft | 405 kts | 177° |
| 2026-05-03 22:10 | 26.83546 | -79.47723 | 18278 ft | 404 kts | 176° |
| 2026-05-03 22:11 | 26.80773 | -79.47228 | 18054 ft | 403 kts | 176° |
| 2026-05-03 22:11 | 26.78009 | -79.46735 | 17984 ft | 402 kts | 176° |
| 2026-05-03 22:11 | 26.75241 | -79.46244 | 18001 ft | 402 kts | 176° |
| 2026-05-03 22:11 | 26.72445 | -79.45748 | 18002 ft | 402 kts | 176° |
| 2026-05-03 22:12 | 26.69679 | -79.45254 | 17999 ft | 403 kts | 176° |
| 2026-05-03 22:12 | 26.66910 | -79.44758 | 18000 ft | 402 kts | 176° |
| 2026-05-03 22:12 | 26.64153 | -79.44266 | 17996 ft | 402 kts | 176° |
| 2026-05-03 22:12 | 26.61388 | -79.43776 | 18002 ft | 403 kts | 176° |
| 2026-05-03 22:13 | 26.58619 | -79.43286 | 18001 ft | 403 kts | 176° |
| 2026-05-03 22:13 | 26.55882 | -79.42804 | 18003 ft | 403 kts | 176° |
| 2026-05-03 22:13 | 26.53122 | -79.42317 | 17995 ft | 403 kts | 176° |
| 2026-05-03 22:13 | 26.50351 | -79.41828 | 17996 ft | 403 kts | 176° |
| 2026-05-03 22:14 | 26.47582 | -79.41338 | 17995 ft | 403 kts | 176° |
| 2026-05-03 22:14 | 26.44816 | -79.40847 | 17999 ft | 403 kts | 176° |
| 2026-05-03 22:14 | 26.42047 | -79.40356 | 17996 ft | 403 kts | 176° |
| 2026-05-03 22:14 | 26.39277 | -79.39869 | 17994 ft | 403 kts | 176° |
| 2026-05-03 22:15 | 26.36518 | -79.39385 | 17997 ft | 403 kts | 176° |
| 2026-05-03 22:15 | 26.33753 | -79.38898 | 17991 ft | 403 kts | 176° |
| 2026-05-03 22:15 | 26.30985 | -79.38409 | 17986 ft | 403 kts | 176° |
| 2026-05-03 22:15 | 26.28202 | -79.37920 | 17989 ft | 403 kts | 176° |
| 2026-05-03 22:16 | 26.25438 | -79.37434 | 17987 ft | 403 kts | 176° |
| 2026-05-03 22:16 | 26.22665 | -79.36947 | 17988 ft | 403 kts | 176° |
| 2026-05-03 22:16 | 26.19892 | -79.36462 | 17982 ft | 403 kts | 176° |
| 2026-05-03 22:16 | 26.17130 | -79.35978 | 17981 ft | 403 kts | 176° |
| 2026-05-03 22:17 | 26.14351 | -79.35491 | 17977 ft | 403 kts | 176° |
| 2026-05-03 22:17 | 26.11577 | -79.35004 | 17973 ft | 403 kts | 176° |
| 2026-05-03 22:17 | 26.08797 | -79.34514 | 17643 ft | 405 kts | 176° |
| 2026-05-03 22:17 | 26.06020 | -79.34022 | 17096 ft | 402 kts | 176° |
| 2026-05-03 22:18 | 26.03323 | -79.33538 | 16946 ft | 381 kts | 176° |
| 2026-05-03 22:18 | 26.00813 | -79.33078 | 16693 ft | 350 kts | 176° |
| 2026-05-03 22:18 | 25.98472 | -79.32653 | 16100 ft | 333 kts | 176° |
| 2026-05-03 22:18 | 25.96226 | -79.32259 | 15279 ft | 325 kts | 176° |
| 2026-05-03 22:19 | 25.94022 | -79.31882 | 14736 ft | 310 kts | 176° |
| 2026-05-03 22:19 | 25.91902 | -79.31596 | 14186 ft | 303 kts | 186° |
| 2026-05-03 22:19 | 25.89886 | -79.32009 | 13388 ft | 290 kts | 206° |
| 2026-05-03 22:19 | 25.88201 | -79.33141 | 12629 ft | 279 kts | 225° |
| 2026-05-03 22:20 | 25.87010 | -79.34785 | 11899 ft | 271 kts | 243° |
| 2026-05-03 22:20 | 25.86390 | -79.36736 | 11172 ft | 267 kts | 260° |
| 2026-05-03 22:20 | 25.86169 | -79.38769 | 10469 ft | 264 kts | 262° |
| 2026-05-03 22:20 | 25.85961 | -79.40781 | 9781 ft | 261 kts | 263° |
| 2026-05-03 22:21 | 25.85751 | -79.42751 | 9251 ft | 259 kts | 262° |
| 2026-05-03 22:21 | 25.85527 | -79.44802 | 8917 ft | 274 kts | 262° |
| 2026-05-03 22:21 | 25.85303 | -79.46912 | 8787 ft | 278 kts | 263° |
| 2026-05-03 22:21 | 25.85083 | -79.49012 | 8547 ft | 274 kts | 263° |
| 2026-05-03 22:22 | 25.84866 | -79.51091 | 8238 ft | 270 kts | 263° |
| 2026-05-03 22:22 | 25.84647 | -79.53183 | 7906 ft | 268 kts | 263° |
| 2026-05-03 22:22 | 25.84432 | -79.55201 | 7575 ft | 266 kts | 263° |
| 2026-05-03 22:22 | 25.84213 | -79.57237 | 7242 ft | 264 kts | 263° |
| 2026-05-03 22:23 | 25.84090 | -79.59289 | 6920 ft | 262 kts | 273° |
| 2026-05-03 22:23 | 25.84419 | -79.61245 | 6568 ft | 262 kts | 288° |
| 2026-05-03 22:23 | 25.85107 | -79.63103 | 6237 ft | 261 kts | 292° |
| 2026-05-03 22:23 | 25.85835 | -79.64989 | 5984 ft | 264 kts | 293° |
| 2026-05-03 22:24 | 25.86614 | -79.66865 | 5979 ft | 270 kts | 294° |
| 2026-05-03 22:24 | 25.87417 | -79.68726 | 5978 ft | 271 kts | 295° |
| 2026-05-03 22:24 | 25.88251 | -79.70637 | 5979 ft | 272 kts | 295° |
| 2026-05-03 22:24 | 25.89074 | -79.72522 | 5981 ft | 272 kts | 295° |
| 2026-05-03 22:25 | 25.89893 | -79.74408 | 5979 ft | 271 kts | 294° |
| 2026-05-03 22:25 | 25.90693 | -79.76266 | 5981 ft | 271 kts | 294° |
| 2026-05-03 22:25 | 25.91514 | -79.78182 | 5980 ft | 271 kts | 294° |
| 2026-05-03 22:25 | 25.92314 | -79.80055 | 5978 ft | 271 kts | 294° |
| 2026-05-03 22:26 | 25.93122 | -79.81956 | 5981 ft | 271 kts | 294° |
| 2026-05-03 22:26 | 25.93938 | -79.83876 | 5979 ft | 271 kts | 294° |
| 2026-05-03 22:26 | 25.94743 | -79.85764 | 5979 ft | 271 kts | 294° |
| 2026-05-03 22:26 | 25.95552 | -79.87667 | 5981 ft | 271 kts | 294° |
| 2026-05-03 22:27 | 25.96360 | -79.89565 | 5979 ft | 271 kts | 294° |
| 2026-05-03 22:27 | 25.97169 | -79.91461 | 5978 ft | 271 kts | 294° |
| 2026-05-03 22:27 | 25.97965 | -79.93334 | 5979 ft | 271 kts | 294° |
| 2026-05-03 22:27 | 25.98844 | -79.95215 | 5978 ft | 271 kts | 303° |
| 2026-05-03 22:28 | 26.00033 | -79.96812 | 5980 ft | 273 kts | 311° |
| 2026-05-03 22:28 | 26.01308 | -79.98377 | 5980 ft | 273 kts | 310° |
| 2026-05-03 22:28 | 26.02577 | -79.99937 | 5980 ft | 273 kts | 310° |
| 2026-05-03 22:28 | 26.03849 | -80.01506 | 5980 ft | 273 kts | 310° |
| 2026-05-03 22:29 | 26.05142 | -80.03099 | 5977 ft | 273 kts | 310° |
| 2026-05-03 22:29 | 26.06406 | -80.04659 | 5981 ft | 273 kts | 310° |
| 2026-05-03 22:29 | 26.07681 | -80.06234 | 5979 ft | 273 kts | 310° |
| 2026-05-03 22:29 | 26.08951 | -80.07802 | 5979 ft | 273 kts | 310° |
| 2026-05-03 22:30 | 26.10210 | -80.09355 | 5980 ft | 273 kts | 310° |
| 2026-05-03 22:30 | 26.11478 | -80.10925 | 5979 ft | 273 kts | 310° |
| 2026-05-03 22:30 | 26.12764 | -80.12521 | 5978 ft | 274 kts | 310° |
| 2026-05-03 22:30 | 26.13980 | -80.14145 | 5977 ft | 272 kts | 301° |
| 2026-05-03 22:31 | 26.14778 | -80.16039 | 5970 ft | 271 kts | 285° |
| 2026-05-03 22:31 | 26.15048 | -80.18095 | 5840 ft | 269 kts | 270° |
| 2026-05-03 22:31 | 26.15045 | -80.20180 | 5730 ft | 269 kts | 270° |
| 2026-05-03 22:31 | 26.15046 | -80.22265 | 5623 ft | 269 kts | 270° |
| 2026-05-03 22:32 | 26.15053 | -80.24342 | 5512 ft | 269 kts | 270° |
| 2026-05-03 22:32 | 26.15066 | -80.26430 | 5300 ft | 270 kts | 270° |
| 2026-05-03 22:32 | 26.15093 | -80.28511 | 4999 ft | 262 kts | 271° |
| 2026-05-03 22:32 | 26.15107 | -80.30425 | 4966 ft | 232 kts | 270° |
| 2026-05-03 22:33 | 26.15103 | -80.32107 | 4989 ft | 206 kts | 270° |
| 2026-05-03 22:33 | 26.15086 | -80.33643 | 4976 ft | 195 kts | 269° |
| 2026-05-03 22:33 | 26.15064 | -80.35154 | 4979 ft | 194 kts | 269° |
| 2026-05-03 22:33 | 26.15043 | -80.36653 | 4980 ft | 193 kts | 269° |
| 2026-05-03 22:34 | 26.15018 | -80.38152 | 4980 ft | 194 kts | 269° |
| 2026-05-03 22:34 | 26.14990 | -80.39649 | 4980 ft | 194 kts | 269° |
| 2026-05-03 22:34 | 26.14962 | -80.41146 | 4980 ft | 194 kts | 269° |
| 2026-05-03 22:34 | 26.14934 | -80.42644 | 4978 ft | 194 kts | 269° |
| 2026-05-03 22:35 | 26.14901 | -80.44148 | 4979 ft | 194 kts | 269° |
| 2026-05-03 22:35 | 26.14867 | -80.45653 | 4978 ft | 194 kts | 269° |
| 2026-05-03 22:35 | 26.14835 | -80.47154 | 4978 ft | 194 kts | 269° |
| 2026-05-03 22:35 | 26.14803 | -80.48650 | 4979 ft | 194 kts | 269° |
| 2026-05-03 22:36 | 26.14770 | -80.50153 | 4982 ft | 194 kts | 269° |
| 2026-05-03 22:36 | 26.14738 | -80.51657 | 4981 ft | 194 kts | 269° |
| 2026-05-03 22:36 | 26.14704 | -80.53158 | 4980 ft | 194 kts | 269° |
| 2026-05-03 22:36 | 26.14670 | -80.54657 | 4981 ft | 194 kts | 269° |
| 2026-05-03 22:37 | 26.14637 | -80.56154 | 4977 ft | 194 kts | 269° |
| 2026-05-03 22:37 | 26.14604 | -80.57654 | 4978 ft | 194 kts | 269° |
| 2026-05-03 22:37 | 26.14570 | -80.59148 | 4978 ft | 193 kts | 269° |
| 2026-05-03 22:37 | 26.14534 | -80.60650 | 4978 ft | 194 kts | 269° |
| 2026-05-03 22:38 | 26.14499 | -80.62149 | 4978 ft | 194 kts | 269° |
| 2026-05-03 22:38 | 26.14464 | -80.63639 | 4979 ft | 194 kts | 269° |
| 2026-05-03 22:38 | 26.14429 | -80.65141 | 4981 ft | 193 kts | 269° |
| 2026-05-03 22:38 | 26.14395 | -80.66638 | 4987 ft | 193 kts | 268° |
| 2026-05-03 22:39 | 26.14361 | -80.68137 | 4970 ft | 193 kts | 269° |
| 2026-05-03 22:39 | 26.14329 | -80.69630 | 4976 ft | 194 kts | 269° |
| 2026-05-03 22:39 | 26.14297 | -80.71128 | 4978 ft | 194 kts | 269° |
| 2026-05-03 22:39 | 26.14266 | -80.72634 | 4980 ft | 194 kts | 269° |
| 2026-05-03 22:40 | 26.14236 | -80.74136 | 4981 ft | 194 kts | 269° |
| 2026-05-03 22:40 | 26.14206 | -80.75633 | 4980 ft | 194 kts | 269° |
| 2026-05-03 22:40 | 26.14175 | -80.77134 | 4980 ft | 193 kts | 269° |
| 2026-05-03 22:40 | 26.14095 | -80.78627 | 4976 ft | 193 kts | 256° |
| 2026-05-03 22:41 | 26.13388 | -80.79874 | 4980 ft | 195 kts | 217° |
| 2026-05-03 22:41 | 26.12119 | -80.80365 | 4983 ft | 198 kts | 179° |
| 2026-05-03 22:41 | 26.10831 | -80.79874 | 4982 ft | 200 kts | 141° |
| 2026-05-03 22:41 | 26.09916 | -80.78701 | 4983 ft | 202 kts | 126° |
| 2026-05-03 22:42 | 26.09135 | -80.77399 | 4979 ft | 202 kts | 123° |
| 2026-05-03 22:42 | 26.08374 | -80.76077 | 4980 ft | 203 kts | 123° |
| 2026-05-03 22:42 | 26.07626 | -80.74743 | 4981 ft | 204 kts | 118° |
| 2026-05-03 22:42 | 26.07269 | -80.73233 | 4983 ft | 204 kts | 94° |
| 2026-05-03 22:43 | 26.07226 | -80.71667 | 4982 ft | 204 kts | 91° |
| 2026-05-03 22:43 | 26.07189 | -80.70084 | 4982 ft | 204 kts | 91° |
| 2026-05-03 22:43 | 26.07152 | -80.68505 | 4980 ft | 204 kts | 91° |
| 2026-05-03 22:43 | 26.07116 | -80.66933 | 4980 ft | 204 kts | 91° |
| 2026-05-03 22:44 | 26.07080 | -80.65361 | 4980 ft | 204 kts | 91° |
| 2026-05-03 22:44 | 26.07047 | -80.63783 | 4979 ft | 204 kts | 91° |
| 2026-05-03 22:44 | 26.07013 | -80.62210 | 4979 ft | 204 kts | 91° |
| 2026-05-03 22:44 | 26.06979 | -80.60634 | 4979 ft | 204 kts | 91° |
| 2026-05-03 22:45 | 26.06942 | -80.59057 | 4979 ft | 204 kts | 92° |
| 2026-05-03 22:45 | 26.06829 | -80.57484 | 4980 ft | 205 kts | 93° |
| 2026-05-03 22:45 | 26.06772 | -80.55867 | 4982 ft | 213 kts | 91° |
| 2026-05-03 22:45 | 26.06756 | -80.54217 | 4978 ft | 214 kts | 90° |
| 2026-05-03 22:46 | 26.06751 | -80.52569 | 4767 ft | 212 kts | 90° |
| 2026-05-03 22:46 | 26.06745 | -80.50934 | 4442 ft | 211 kts | 89° |
| 2026-05-03 22:46 | 26.06741 | -80.49310 | 4142 ft | 209 kts | 89° |
| 2026-05-03 22:46 | 26.06733 | -80.47703 | 3840 ft | 207 kts | 89° |
| 2026-05-03 22:47 | 26.06729 | -80.46112 | 3555 ft | 205 kts | 89° |
| 2026-05-03 22:47 | 26.06724 | -80.44535 | 3270 ft | 203 kts | 89° |
| 2026-05-03 22:47 | 26.06718 | -80.42972 | 3027 ft | 201 kts | 88° |
| 2026-05-03 22:47 | 26.06711 | -80.41418 | 2982 ft | 200 kts | 89° |
| 2026-05-03 22:48 | 26.06705 | -80.39878 | 3004 ft | 200 kts | 88° |
| 2026-05-03 22:48 | 26.06699 | -80.38334 | 2981 ft | 200 kts | 88° |
| 2026-05-03 22:48 | 26.06693 | -80.36785 | 2977 ft | 200 kts | 89° |
| 2026-05-03 22:48 | 26.06687 | -80.35241 | 2976 ft | 200 kts | 89° |
| 2026-05-03 22:49 | 26.06678 | -80.33708 | 2971 ft | 195 kts | 89° |
| 2026-05-03 22:49 | 26.06671 | -80.32216 | 2834 ft | 191 kts | 89° |
| 2026-05-03 22:49 | 26.06664 | -80.30741 | 2629 ft | 190 kts | 88° |
| 2026-05-03 22:49 | 26.06658 | -80.29286 | 2378 ft | 189 kts | 88° |
| 2026-05-03 22:50 | 26.06651 | -80.27891 | 2140 ft | 166 kts | 88° |
| 2026-05-03 22:50 | 26.06646 | -80.27083 | 1989 ft | 155 kts | 88° |
| 2026-05-03 22:50 | 26.06640 | -80.25915 | 1793 ft | 148 kts | 88° |
| 2026-05-03 22:50 | 26.06636 | -80.24787 | 1607 ft | 145 kts | 88° |
| 2026-05-03 22:51 | 26.06631 | -80.23671 | 1415 ft | 144 kts | 87° |
| 2026-05-03 22:51 | 26.06625 | -80.22563 | 1225 ft | 143 kts | 87° |
| 2026-05-03 22:51 | 26.06618 | -80.21458 | 1033 ft | 142 kts | 88° |
| 2026-05-03 22:51 | 26.06614 | -80.20363 | 839 ft | 144 kts | 88° |
| 2026-05-03 22:52 | 26.06607 | -80.19254 | 657 ft | 142 kts | 88° |
| 2026-05-03 22:52 | 26.06601 | -80.18165 | 472 ft | 143 kts | 88° |
| 2026-05-03 22:52 | 26.06596 | -80.17063 | 281 ft | 142 kts | 89° |
| 2026-05-03 22:52 | 26.06589 | -80.15964 | 94 ft | 142 kts | 89° |
| 2026-05-03 22:53 | 26.06584 | -80.14939 | 19 ft | 121 kts | 91° |
| 2026-05-03 22:53 | 26.06580 | -80.14241 | 58 ft | 50 kts | 91° |
| 2026-05-03 22:53 | 26.06602 | -80.14024 | 72 ft | 13 kts | 34° |
| 2026-05-03 22:53 | 26.06680 | -80.14000 | 39 ft | 3 kts | 342° |
| 2026-05-03 22:54 | 26.06681 | -80.14000 | 41 ft | 0 kts | 347° |
| 2026-05-03 22:54 | 26.06681 | -80.14001 | 43 ft | 0 kts | 349° |
| 2026-05-03 22:54 | 26.06682 | -80.14002 | 39 ft | 0 kts | 354° |
| 2026-05-03 22:55 | 26.07569 | -80.14043 | 16 ft | 199 kts | 357° |
| 2026-05-03 22:55 | 26.08207 | -80.14080 | 34 ft | 0 kts | 51° |
| 2026-05-03 22:56 | 26.06877 | -80.14386 | 16 ft | 1 kts | 355° |